createdAt,value
2017-08-10T00:00:33.690Z,84.27
2017-08-10T00:03:01.266Z,85.03
2017-08-10T00:05:28.885Z,84.35
2017-08-10T00:07:56.440Z,84.33
2017-08-10T00:10:24.012Z,84.50
2017-08-10T00:12:51.654Z,84.56
2017-08-10T00:15:19.238Z,84.62
2017-08-10T00:17:46.812Z,84.98
2017-08-10T00:20:14.439Z,84.34
2017-08-10T00:22:41.998Z,84.13
2017-08-10T00:25:09.560Z,84.41
2017-08-10T00:27:37.185Z,84.42
2017-08-10T00:30:04.828Z,85.12
2017-08-10T00:32:32.383Z,85.18
2017-08-10T00:35:00.770Z,85.33
2017-08-10T00:37:28.340Z,85.65
2017-08-10T00:39:55.904Z,85.17
2017-08-10T00:42:23.514Z,85.48
2017-08-10T00:44:51.099Z,85.60
2017-08-10T00:47:18.727Z,85.65
2017-08-10T00:49:46.586Z,85.88
2017-08-10T00:52:14.156Z,86.62
2017-08-10T00:54:41.718Z,85.68
2017-08-10T00:57:09.345Z,85.51
2017-08-10T00:59:36.912Z,85.68
2017-08-10T01:02:04.489Z,85.31
2017-08-10T01:04:32.308Z,85.12
2017-08-10T01:06:59.861Z,85.65
2017-08-10T01:09:27.418Z,86.36
2017-08-10T01:11:55.310Z,86.51
2017-08-10T01:14:22.896Z,86.46
2017-08-10T01:16:50.469Z,86.29
2017-08-10T01:19:18.201Z,85.96
2017-08-10T01:21:45.760Z,85.97
2017-08-10T01:24:13.425Z,85.78
2017-08-10T01:26:41.056Z,85.70
2017-08-10T01:29:08.618Z,85.76
2017-08-10T01:31:36.250Z,86.20
2017-08-10T01:34:03.879Z,85.84
2017-08-10T01:36:31.456Z,85.50
2017-08-10T01:38:59.026Z,85.56
2017-08-10T01:41:26.640Z,86.32
2017-08-10T01:43:54.189Z,86.58
2017-08-10T01:46:21.754Z,86.74
2017-08-10T01:48:49.373Z,86.72
2017-08-10T01:51:16.947Z,87.18
2017-08-10T01:53:44.536Z,87.70
2017-08-10T01:56:12.173Z,88.10
2017-08-10T01:58:39.735Z,88.18
2017-08-10T02:01:07.724Z,88.04
2017-08-10T02:03:35.386Z,88.26
2017-08-10T02:06:02.937Z,87.86
2017-08-10T02:08:31.496Z,87.58
2017-08-10T02:10:59.122Z,88.11
2017-08-10T02:13:26.682Z,88.17
2017-08-10T02:15:54.256Z,88.08
2017-08-10T02:18:21.878Z,88.30
2017-08-10T02:20:49.629Z,88.43
2017-08-10T02:23:17.314Z,88.12
2017-08-10T02:25:44.941Z,88.19
2017-08-10T02:28:12.503Z,88.39
2017-08-10T02:30:40.072Z,88.62
2017-08-10T02:33:07.701Z,88.70
2017-08-10T02:35:35.293Z,88.27
2017-08-10T02:38:03.054Z,87.82
2017-08-10T02:40:30.693Z,87.70
2017-08-10T02:42:58.443Z,87.78
2017-08-10T02:45:25.999Z,87.86
2017-08-10T02:47:53.617Z,87.71
2017-08-10T02:50:21.186Z,88.13
2017-08-10T02:52:48.913Z,87.95
2017-08-10T02:55:16.694Z,87.75
2017-08-10T02:57:44.254Z,87.48
2017-08-10T03:00:12.025Z,88.09
2017-08-10T03:02:39.646Z,88.04
2017-08-10T03:05:07.228Z,87.62
2017-08-10T03:07:34.791Z,87.96
2017-08-10T03:10:02.397Z,87.55
2017-08-10T03:12:29.986Z,87.83
2017-08-10T03:14:57.585Z,87.48
2017-08-10T03:17:25.249Z,87.24
2017-08-10T03:19:53.008Z,87.71
2017-08-10T03:22:20.569Z,87.88
2017-08-10T03:24:48.208Z,87.02
2017-08-10T03:27:15.896Z,87.79
2017-08-10T03:29:43.454Z,87.55
2017-08-10T03:32:11.075Z,87.08
2017-08-10T03:34:38.900Z,87.29
2017-08-10T03:37:06.471Z,87.74
2017-08-10T03:39:34.079Z,87.77
2017-08-10T03:42:01.639Z,87.14
2017-08-10T03:44:29.213Z,86.50
2017-08-10T03:46:56.845Z,85.88
2017-08-10T03:49:24.464Z,84.88
2017-08-10T03:51:52.147Z,84.17
2017-08-10T03:54:19.787Z,83.65
2017-08-10T03:56:47.333Z,82.74
2017-08-10T03:59:14.897Z,79.72
2017-08-10T04:01:42.675Z,77.21
2017-08-10T04:04:10.245Z,74.41
2017-08-10T04:06:37.824Z,71.85
2017-08-10T04:09:05.451Z,70.15
2017-08-10T04:11:33.013Z,68.75
2017-08-10T04:14:00.572Z,66.15
2017-08-10T04:16:28.186Z,64.13
2017-08-10T04:18:55.753Z,63.54
2017-08-10T04:21:23.327Z,60.75
2017-08-10T04:23:50.957Z,59.20
2017-08-10T04:26:18.532Z,57.86
2017-08-10T04:28:46.094Z,57.63
2017-08-10T04:31:13.703Z,57.00
2017-08-10T04:33:41.247Z,56.79
2017-08-10T04:36:09.219Z,55.77
2017-08-10T04:38:36.840Z,55.41
2017-08-10T04:41:04.439Z,55.55
2017-08-10T04:43:32.004Z,55.17
2017-08-10T04:45:59.633Z,53.75
2017-08-10T04:48:27.205Z,51.52
2017-08-10T04:50:54.784Z,49.82
2017-08-10T04:53:22.403Z,49.61
2017-08-10T04:55:49.972Z,48.77
2017-08-10T04:58:17.538Z,47.60
2017-08-10T05:00:45.151Z,47.25
2017-08-10T05:03:12.741Z,47.67
2017-08-10T05:05:40.322Z,47.31
2017-08-10T05:08:07.944Z,45.69
2017-08-10T05:10:35.516Z,45.15
2017-08-10T05:13:03.083Z,44.02
2017-08-10T05:15:30.708Z,42.30
2017-08-10T05:17:58.267Z,42.48
2017-08-10T05:20:25.826Z,43.11
2017-08-10T05:22:53.448Z,42.17
2017-08-10T05:25:21.002Z,41.13
2017-08-10T05:27:48.551Z,39.36
2017-08-10T05:30:16.164Z,38.41
2017-08-10T05:32:43.718Z,38.89
2017-08-10T05:35:11.305Z,36.74
2017-08-10T05:37:38.929Z,35.11
2017-08-10T05:40:06.497Z,34.16
2017-08-10T05:42:34.103Z,34.04
2017-08-10T05:45:01.730Z,33.97
2017-08-10T05:47:29.326Z,31.53
2017-08-10T05:49:56.917Z,30.37
2017-08-10T05:52:24.559Z,31.25
2017-08-10T05:54:52.116Z,31.43
2017-08-10T05:57:19.693Z,29.38
2017-08-10T05:59:47.345Z,29.24
2017-08-10T06:02:14.894Z,28.42
2017-08-10T06:04:42.446Z,30.08
2017-08-10T06:07:10.066Z,28.17
2017-08-10T06:09:37.640Z,28.26
2017-08-10T06:12:05.212Z,27.62
2017-08-10T06:14:32.834Z,26.74
2017-08-10T06:17:00.415Z,26.31
2017-08-10T06:19:27.974Z,26.93
2017-08-10T06:21:55.600Z,27.42
2017-08-10T06:24:23.161Z,29.19
2017-08-10T06:26:50.719Z,27.86
2017-08-10T06:29:18.325Z,26.96
2017-08-10T06:31:45.885Z,28.31
2017-08-10T06:34:13.500Z,26.95
2017-08-10T06:36:41.131Z,27.33
2017-08-10T06:39:08.753Z,27.66
2017-08-10T06:41:36.330Z,28.88
2017-08-10T06:44:03.968Z,28.90
2017-08-10T06:46:31.552Z,29.98
2017-08-10T06:48:59.129Z,27.92
2017-08-10T06:51:26.760Z,27.43
2017-08-10T06:53:54.328Z,25.63
2017-08-10T06:56:21.889Z,25.71
2017-08-10T06:58:49.526Z,27.28
2017-08-10T07:01:17.085Z,28.08
2017-08-10T07:03:44.647Z,26.55
2017-08-10T07:06:12.316Z,27.08
2017-08-10T07:08:39.889Z,28.69
2017-08-10T07:11:07.450Z,27.61
2017-08-10T07:13:35.092Z,25.29
2017-08-10T07:16:02.663Z,26.03
2017-08-10T07:18:30.219Z,26.45
2017-08-10T07:20:57.847Z,25.26
2017-08-10T07:23:25.449Z,25.97
2017-08-10T07:25:53.021Z,25.54
2017-08-10T07:28:20.637Z,25.80
2017-08-10T07:30:48.188Z,26.87
2017-08-10T07:33:15.752Z,25.35
2017-08-10T07:35:43.433Z,24.59
2017-08-10T07:38:11.024Z,25.77
2017-08-10T07:40:38.606Z,26.87
2017-08-10T07:43:06.253Z,26.51
2017-08-10T07:45:33.818Z,25.94
2017-08-10T07:48:01.391Z,25.72
2017-08-10T07:50:29.021Z,26.07
2017-08-10T07:52:56.583Z,26.79
2017-08-10T07:55:24.145Z,25.48
2017-08-10T07:57:51.764Z,26.37
2017-08-10T08:00:19.366Z,25.53
2017-08-10T08:02:47.015Z,25.34
2017-08-10T08:05:14.706Z,25.27
2017-08-10T08:07:42.269Z,26.42
2017-08-10T08:10:10.019Z,28.62
2017-08-10T08:12:37.647Z,28.88
2017-08-10T08:15:05.203Z,27.22
2017-08-10T08:17:32.754Z,26.91
2017-08-10T08:20:00.380Z,26.49
2017-08-10T08:22:27.943Z,25.79
2017-08-10T08:24:55.520Z,25.68
2017-08-10T08:27:23.157Z,25.50
2017-08-10T08:29:50.733Z,27.13
2017-08-10T08:32:18.295Z,27.23
2017-08-10T08:34:45.932Z,26.51
2017-08-10T08:37:13.493Z,25.27
2017-08-10T08:39:41.056Z,25.08
2017-08-10T08:42:08.685Z,26.78
2017-08-10T08:44:36.250Z,26.24
2017-08-10T08:47:03.821Z,25.88
2017-08-10T08:49:31.433Z,25.94
2017-08-10T08:51:59.039Z,25.58
2017-08-10T08:54:26.594Z,26.21
2017-08-10T08:56:54.221Z,25.26
2017-08-10T08:59:21.790Z,25.66
2017-08-10T09:01:49.352Z,25.71
2017-08-10T09:04:16.976Z,25.32
2017-08-10T09:06:44.604Z,26.34
2017-08-10T09:09:12.155Z,27.64
2017-08-10T09:11:39.759Z,26.21
2017-08-10T09:14:07.314Z,25.92
2017-08-10T09:16:34.884Z,26.96
2017-08-10T09:19:02.815Z,28.14
2017-08-10T09:21:30.389Z,28.00
2017-08-10T09:23:57.951Z,28.72
2017-08-10T09:26:25.563Z,27.74
2017-08-10T09:28:53.132Z,27.68
2017-08-10T09:31:20.709Z,27.08
2017-08-10T09:33:48.333Z,26.11
2017-08-10T09:36:15.888Z,24.21
2017-08-10T09:38:43.444Z,25.49
2017-08-10T09:41:12.455Z,25.40
2017-08-10T09:43:40.175Z,25.48
2017-08-10T09:46:07.748Z,24.80
2017-08-10T09:48:35.363Z,26.99
2017-08-10T09:51:02.927Z,27.60
2017-08-10T09:53:30.496Z,25.36
2017-08-10T09:55:58.120Z,25.74
2017-08-10T09:58:25.716Z,26.31
2017-08-10T10:00:53.281Z,27.45
2017-08-10T10:03:20.913Z,25.57
2017-08-10T10:05:48.485Z,25.01
2017-08-10T10:08:16.036Z,25.71
2017-08-10T10:10:43.663Z,25.04
2017-08-10T10:13:11.261Z,27.39
2017-08-10T10:15:38.814Z,29.55
2017-08-10T10:18:06.729Z,26.70
2017-08-10T10:20:34.293Z,25.69
2017-08-10T10:23:01.848Z,25.65
2017-08-10T10:25:29.477Z,25.80
2017-08-10T10:27:57.029Z,23.83
2017-08-10T10:30:24.599Z,24.75
2017-08-10T10:32:52.218Z,22.05
2017-08-10T10:35:19.795Z,23.08
2017-08-10T10:37:47.356Z,26.16
2017-08-10T10:40:14.980Z,22.31
2017-08-10T10:42:42.530Z,24.34
2017-08-10T10:45:10.112Z,24.03
2017-08-10T10:47:37.716Z,24.50
2017-08-10T10:50:05.259Z,23.97
2017-08-10T10:52:32.815Z,23.81
2017-08-10T10:55:00.439Z,22.27
2017-08-10T10:57:28.011Z,22.68
2017-08-10T10:59:55.609Z,22.09
2017-08-10T11:02:23.284Z,23.55
2017-08-10T11:04:50.899Z,23.35
2017-08-10T11:07:18.497Z,23.99
2017-08-10T11:09:46.176Z,22.14
2017-08-10T11:12:13.810Z,23.40
2017-08-10T11:14:41.410Z,22.81
2017-08-10T11:17:09.098Z,21.67
2017-08-10T11:19:36.707Z,19.97
2017-08-10T11:22:04.314Z,19.95
2017-08-10T11:24:31.987Z,19.70
2017-08-10T11:26:59.768Z,23.88
2017-08-10T11:29:27.441Z,20.43
2017-08-10T11:31:55.117Z,21.20
2017-08-10T11:34:22.709Z,22.74
2017-08-10T11:36:50.328Z,20.08
2017-08-10T11:39:17.977Z,17.72
2017-08-10T11:41:45.582Z,20.90
2017-08-10T11:44:13.193Z,21.02
2017-08-10T11:46:40.878Z,19.90
2017-08-10T11:49:08.488Z,21.83
2017-08-10T11:51:36.099Z,23.27
2017-08-10T11:54:03.753Z,23.35
2017-08-10T11:56:31.360Z,20.93
2017-08-10T11:58:58.970Z,20.63
2017-08-10T12:01:26.629Z,19.49
2017-08-10T12:03:54.238Z,19.20
2017-08-10T12:06:21.864Z,19.14
2017-08-10T12:08:49.548Z,19.37
2017-08-10T12:11:17.177Z,19.44
2017-08-10T12:13:44.786Z,17.63
2017-08-10T12:16:12.459Z,18.35
2017-08-10T12:18:40.071Z,18.68
2017-08-10T12:21:07.673Z,19.10
2017-08-10T12:23:35.356Z,18.85
2017-08-10T12:26:02.961Z,18.86
2017-08-10T12:28:30.565Z,21.57
2017-08-10T12:30:58.223Z,19.54
2017-08-10T12:33:25.840Z,18.71
2017-08-10T12:35:53.435Z,18.89
2017-08-10T12:38:21.123Z,20.10
2017-08-10T12:40:48.737Z,21.49
2017-08-10T12:43:16.475Z,19.60
2017-08-10T12:45:44.459Z,20.22
2017-08-10T12:48:12.431Z,22.05
2017-08-10T12:50:40.396Z,23.19
2017-08-10T12:53:08.420Z,23.31
2017-08-10T12:55:36.334Z,25.05
2017-08-10T12:58:04.055Z,24.15
2017-08-10T13:00:31.870Z,23.41
2017-08-10T13:02:59.592Z,24.82
2017-08-10T13:05:27.576Z,24.87
2017-08-10T13:07:55.670Z,26.36
2017-08-10T13:10:23.327Z,25.45
2017-08-10T13:12:51.065Z,27.55
2017-08-10T13:15:18.725Z,27.86
2017-08-10T13:17:46.570Z,29.08
2017-08-10T13:20:14.593Z,28.56
2017-08-10T13:22:42.666Z,29.00
2017-08-10T13:25:10.516Z,29.00
2017-08-10T13:27:38.381Z,28.50
2017-08-10T13:30:06.253Z,29.66
2017-08-10T13:32:33.974Z,30.07
2017-08-10T13:35:01.578Z,29.60
2017-08-10T13:37:29.632Z,29.51
2017-08-10T13:39:57.322Z,29.49
2017-08-10T13:42:25.042Z,29.61
2017-08-10T13:44:52.853Z,29.30
2017-08-10T13:47:20.623Z,29.14
2017-08-10T13:49:48.586Z,29.51
2017-08-10T13:52:16.312Z,28.77
2017-08-10T13:54:43.913Z,30.04
2017-08-10T13:57:11.511Z,30.59
2017-08-10T13:59:39.179Z,29.65
2017-08-10T14:02:06.786Z,29.60
2017-08-10T14:04:34.395Z,30.35
2017-08-10T14:07:02.051Z,30.20
2017-08-10T14:09:29.648Z,30.32
2017-08-10T14:11:57.238Z,30.59
2017-08-10T14:14:25.038Z,30.95
2017-08-10T14:16:52.853Z,30.87
2017-08-10T14:19:20.532Z,31.49
2017-08-10T14:21:48.396Z,31.18
2017-08-10T14:24:16.010Z,32.24
2017-08-10T14:26:43.607Z,31.72
2017-08-10T14:29:11.316Z,32.25
2017-08-10T14:31:38.907Z,32.64
2017-08-10T14:34:06.527Z,31.52
2017-08-10T14:36:34.210Z,32.30
2017-08-10T14:39:01.813Z,31.99
2017-08-10T14:41:29.411Z,35.05
2017-08-10T14:43:57.057Z,33.67
2017-08-10T14:46:24.636Z,35.40
2017-08-10T14:48:52.340Z,34.18
2017-08-10T14:51:20.011Z,34.47
2017-08-10T14:53:47.628Z,33.29
2017-08-10T14:56:15.234Z,33.41
2017-08-10T14:58:42.903Z,33.00
2017-08-10T15:01:10.503Z,32.98
2017-08-10T15:03:38.103Z,33.87
2017-08-10T15:06:05.765Z,33.83
2017-08-10T15:08:33.345Z,33.59
2017-08-10T15:11:01.073Z,34.11
2017-08-10T15:13:28.728Z,33.36
2017-08-10T15:15:56.338Z,33.71
2017-08-10T15:18:23.928Z,34.17
2017-08-10T15:20:51.577Z,33.79
2017-08-10T15:23:19.166Z,33.66
2017-08-10T15:25:46.785Z,35.45
2017-08-10T15:28:14.461Z,36.99
2017-08-10T15:30:42.046Z,36.75
2017-08-10T15:33:09.638Z,37.33
2017-08-10T15:35:37.289Z,36.71
2017-08-10T15:38:04.898Z,36.91
2017-08-10T15:40:32.745Z,36.81
2017-08-10T15:43:00.631Z,36.73
2017-08-10T15:45:28.477Z,37.02
2017-08-10T15:47:56.369Z,36.27
2017-08-10T15:50:24.389Z,36.77
2017-08-10T15:52:52.302Z,37.20
2017-08-10T15:55:20.374Z,36.48
2017-08-10T15:57:48.233Z,36.92
2017-08-10T16:00:15.825Z,36.94
2017-08-10T16:02:43.440Z,36.53
2017-08-10T16:05:11.103Z,37.05
2017-08-10T16:07:38.698Z,37.47
2017-08-10T16:10:06.344Z,36.84
2017-08-10T16:12:33.996Z,36.97
2017-08-10T16:15:01.605Z,36.90
2017-08-10T16:17:29.504Z,36.92
2017-08-10T16:19:57.194Z,37.22
2017-08-10T16:22:24.789Z,37.87
2017-08-10T16:24:52.517Z,37.06
2017-08-10T16:27:20.326Z,37.66
2017-08-10T16:29:48.049Z,37.42
2017-08-10T16:32:15.859Z,37.53
2017-08-10T16:34:43.683Z,38.62
2017-08-10T16:37:11.622Z,38.10
2017-08-10T16:39:39.301Z,39.17
2017-08-10T16:42:06.962Z,38.29
2017-08-10T16:44:34.631Z,40.70
2017-08-10T16:47:02.485Z,42.24
2017-08-10T16:49:30.236Z,42.96
2017-08-10T16:51:58.219Z,40.94
2017-08-10T16:54:25.940Z,42.16
2017-08-10T16:56:53.591Z,41.52
2017-08-10T16:59:21.189Z,43.95
2017-08-10T17:01:48.791Z,43.85
2017-08-10T17:04:16.477Z,44.34
2017-08-10T17:06:44.076Z,45.40
2017-08-10T17:09:11.689Z,45.81
2017-08-10T17:11:39.358Z,46.45
2017-08-10T17:14:06.975Z,49.30
2017-08-10T17:16:34.575Z,50.24
2017-08-10T17:19:02.267Z,49.24
2017-08-10T17:21:29.865Z,56.63
2017-08-10T17:23:57.476Z,50.22
2017-08-10T17:26:25.307Z,51.35
2017-08-10T17:28:53.009Z,51.89
2017-08-10T17:31:20.824Z,52.80
2017-08-10T17:33:48.894Z,53.92
2017-08-10T17:36:16.735Z,54.91
2017-08-10T17:38:44.634Z,55.89
2017-08-10T17:41:12.645Z,56.91
2017-08-10T17:43:40.470Z,56.95
2017-08-10T17:46:08.239Z,58.17
2017-08-10T17:48:36.102Z,58.46
2017-08-10T17:51:03.769Z,58.58
2017-08-10T17:53:31.605Z,58.13
2017-08-10T17:55:59.502Z,59.92
2017-08-10T17:58:27.342Z,60.09
2017-08-10T18:00:55.027Z,60.33
2017-08-10T18:03:23.053Z,60.01
2017-08-10T18:05:50.772Z,64.68
2017-08-10T18:08:18.431Z,62.33
2017-08-10T18:10:46.499Z,66.44
2017-08-10T18:13:14.346Z,65.40
2017-08-10T18:15:42.027Z,66.74
2017-08-10T18:18:10.058Z,67.01
2017-08-10T18:20:37.948Z,69.07
2017-08-10T18:23:05.832Z,68.83
2017-08-10T18:25:33.833Z,70.40
2017-08-10T18:28:01.554Z,69.88
2017-08-10T18:30:29.393Z,69.04
2017-08-10T18:32:57.090Z,68.70
2017-08-10T18:35:24.677Z,68.46
2017-08-10T18:37:52.623Z,69.38
2017-08-10T18:40:20.589Z,72.95
2017-08-10T18:42:48.176Z,68.65
2017-08-10T18:45:15.813Z,68.16
2017-08-10T18:47:43.735Z,69.39
2017-08-10T18:50:11.752Z,71.17
2017-08-10T18:52:39.411Z,69.85
2017-08-10T18:55:07.390Z,68.13
2017-08-10T18:57:35.458Z,70.53
2017-08-10T19:00:03.424Z,70.07
2017-08-10T19:02:31.388Z,69.01
2017-08-10T19:04:59.332Z,71.82
2017-08-10T19:07:27.229Z,72.94
2017-08-10T19:09:55.222Z,70.97
2017-08-10T19:12:23.373Z,72.05
2017-08-10T19:14:51.123Z,72.33
2017-08-10T19:17:19.089Z,71.57
2017-08-10T19:19:46.835Z,72.83
2017-08-10T19:22:14.555Z,73.65
2017-08-10T19:24:42.499Z,72.93
2017-08-10T19:27:10.339Z,72.61
2017-08-10T19:29:38.000Z,72.08
2017-08-10T19:32:05.751Z,73.08
2017-08-10T19:34:33.712Z,74.19
2017-08-10T19:37:01.533Z,72.47
2017-08-10T19:39:29.293Z,70.89
2017-08-10T19:41:57.065Z,70.37
2017-08-10T19:44:24.813Z,69.27
2017-08-10T19:46:52.893Z,72.23
2017-08-10T19:49:20.744Z,72.05
2017-08-10T19:51:48.634Z,69.53
2017-08-10T19:54:16.554Z,71.03
2017-08-10T19:56:44.364Z,70.07
2017-08-10T19:59:12.225Z,70.73
2017-08-10T20:01:40.302Z,69.47
2017-08-10T20:04:08.142Z,69.39
2017-08-10T20:06:35.826Z,69.49
2017-08-10T20:09:03.583Z,69.74
2017-08-10T20:11:31.545Z,69.89
2017-08-10T20:13:59.285Z,71.34
2017-08-10T20:16:27.160Z,72.40
2017-08-10T20:18:54.953Z,73.64
2017-08-10T20:21:22.545Z,74.51
2017-08-10T20:23:50.436Z,75.77
2017-08-10T20:26:18.149Z,76.00
2017-08-10T20:28:45.808Z,76.43
2017-08-10T20:31:13.710Z,76.36
2017-08-10T20:33:41.453Z,76.68
2017-08-10T20:36:09.052Z,77.14
2017-08-10T20:38:36.932Z,76.11
2017-08-10T20:41:04.730Z,76.75
2017-08-10T20:43:32.394Z,77.26
2017-08-10T20:46:00.315Z,77.65
2017-08-10T20:48:27.892Z,77.77
2017-08-10T20:50:55.769Z,77.50
2017-08-10T20:53:23.450Z,77.73
2017-08-10T20:55:51.157Z,78.33
2017-08-10T20:58:18.754Z,78.89
2017-08-10T21:00:46.403Z,78.70
2017-08-10T21:03:14.011Z,77.71
2017-08-10T21:05:41.615Z,77.66
2017-08-10T21:08:09.571Z,78.39
2017-08-10T21:10:37.211Z,79.08
2017-08-10T21:13:04.818Z,79.40
2017-08-10T21:15:32.587Z,79.51
2017-08-10T21:18:00.177Z,78.46
2017-08-10T21:20:27.794Z,79.07
2017-08-10T21:22:55.469Z,78.69
2017-08-10T21:25:23.051Z,79.07
2017-08-10T21:27:50.650Z,78.24
2017-08-10T21:30:18.297Z,78.66
2017-08-10T21:32:45.885Z,79.06
2017-08-10T21:35:13.475Z,80.02
2017-08-10T21:37:41.124Z,80.92
2017-08-10T21:40:08.739Z,81.43
2017-08-10T21:42:36.336Z,80.87
2017-08-10T21:45:04.001Z,81.36
2017-08-10T21:47:31.601Z,81.57
2017-08-10T21:49:59.198Z,81.44
2017-08-10T21:52:26.864Z,82.33
2017-08-10T21:54:54.490Z,81.65
2017-08-10T21:57:22.092Z,82.02
2017-08-10T21:59:49.776Z,82.29
2017-08-10T22:02:17.441Z,82.03
2017-08-10T22:04:45.056Z,81.51
2017-08-10T22:07:12.719Z,81.46
2017-08-10T22:09:40.317Z,81.91
2017-08-10T22:12:07.913Z,81.93
2017-08-10T22:14:35.671Z,82.53
2017-08-10T22:17:03.285Z,82.80
2017-08-10T22:19:30.929Z,82.50
2017-08-10T22:21:58.604Z,82.58
2017-08-10T22:24:26.202Z,82.94
2017-08-10T22:26:53.794Z,83.03
2017-08-10T22:29:21.437Z,83.13
2017-08-10T22:31:49.044Z,83.25
2017-08-10T22:34:16.648Z,83.26
2017-08-10T22:36:44.297Z,82.82
2017-08-10T22:39:11.899Z,82.87
2017-08-10T22:41:39.612Z,82.99
2017-08-10T22:44:07.328Z,82.92
2017-08-10T22:46:34.930Z,82.80
2017-08-10T22:49:02.546Z,82.07
2017-08-10T22:51:30.213Z,81.62
2017-08-10T22:53:57.839Z,82.18
2017-08-10T22:56:25.447Z,82.31
2017-08-10T22:58:53.112Z,81.86
2017-08-10T23:01:20.706Z,82.07
2017-08-10T23:03:48.311Z,81.64
2017-08-10T23:06:15.957Z,81.72
2017-08-10T23:08:43.590Z,81.71
2017-08-10T23:11:11.210Z,82.59
2017-08-10T23:13:38.879Z,82.80
2017-08-10T23:16:06.493Z,82.67
2017-08-10T23:18:34.149Z,82.78
2017-08-10T23:21:01.843Z,82.73
2017-08-10T23:23:29.439Z,83.07
2017-08-10T23:25:57.051Z,83.02
2017-08-10T23:28:24.719Z,83.42
2017-08-10T23:30:52.343Z,83.17
2017-08-10T23:33:19.953Z,83.82
2017-08-10T23:35:47.602Z,84.32
2017-08-10T23:38:15.208Z,83.94
2017-08-10T23:40:42.825Z,82.73
2017-08-10T23:43:10.494Z,82.70
2017-08-10T23:45:38.117Z,82.85
2017-08-10T23:48:05.744Z,82.89
2017-08-10T23:50:33.403Z,82.81
2017-08-10T23:53:01.015Z,83.01
2017-08-10T23:55:28.618Z,82.65
2017-08-10T23:57:56.285Z,82.76
